sensor_id;sensor_type;location;lat;lon;timestamp;P1;durP1;ratioP1;P2;durP2;ratioP2
18274;SDS011;19470;49.322;7.218;2023-09-19T00:01:31;6.05;;;3.40;;
18274;SDS011;19470;49.322;7.218;2023-09-19T00:03:59;6.28;;;2.22;;
18274;SDS011;19470;49.322;7.218;2023-09-19T00:06:27;6.55;;;2.55;;
18274;SDS011;19470;49.322;7.218;2023-09-19T00:08:56;4.47;;;2.40;;
18274;SDS011;19470;49.322;7.218;2023-09-19T00:11:24;5.28;;;2.90;;
18274;SDS011;19470;49.322;7.218;2023-09-19T00:13:51;5.45;;;2.78;;
18274;SDS011;19470;49.322;7.218;2023-09-19T00:16:18;5.82;;;2.83;;
18274;SDS011;19470;49.322;7.218;2023-09-19T00:18:45;4.15;;;2.83;;
18274;SDS011;19470;49.322;7.218;2023-09-19T00:21:13;10.55;;;3.20;;
18274;SDS011;19470;49.322;7.218;2023-09-19T00:23:40;7.25;;;3.15;;
18274;SDS011;19470;49.322;7.218;2023-09-19T00:26:07;5.97;;;2.80;;
18274;SDS011;19470;49.322;7.218;2023-09-19T00:28:33;5.03;;;2.83;;
18274;SDS011;19470;49.322;7.218;2023-09-19T00:31:00;6.35;;;2.47;;
18274;SDS011;19470;49.322;7.218;2023-09-19T00:33:27;3.63;;;2.25;;
18274;SDS011;19470;49.322;7.218;2023-09-19T00:35:54;4.63;;;2.85;;
18274;SDS011;19470;49.322;7.218;2023-09-19T00:38:24;5.95;;;2.40;;
18274;SDS011;19470;49.322;7.218;2023-09-19T00:40:52;5.47;;;2.63;;
18274;SDS011;19470;49.322;7.218;2023-09-19T00:43:19;5.72;;;2.88;;
18274;SDS011;19470;49.322;7.218;2023-09-19T00:45:48;6.82;;;2.90;;
18274;SDS011;19470;49.322;7.218;2023-09-19T00:48:16;6.78;;;2.40;;
18274;SDS011;19470;49.322;7.218;2023-09-19T00:50:43;4.20;;;2.60;;
18274;SDS011;19470;49.322;7.218;2023-09-19T00:53:13;3.45;;;2.17;;
18274;SDS011;19470;49.322;7.218;2023-09-19T00:55:44;5.13;;;2.53;;
18274;SDS011;19470;49.322;7.218;2023-09-19T00:58:12;7.07;;;3.40;;
18274;SDS011;19470;49.322;7.218;2023-09-19T01:00:38;8.18;;;3.05;;
18274;SDS011;19470;49.322;7.218;2023-09-19T01:03:09;8.00;;;3.60;;
18274;SDS011;19470;49.322;7.218;2023-09-19T01:05:38;5.18;;;3.00;;
18274;SDS011;19470;49.322;7.218;2023-09-19T01:08:05;7.15;;;3.58;;
18274;SDS011;19470;49.322;7.218;2023-09-19T01:10:32;8.50;;;3.40;;
18274;SDS011;19470;49.322;7.218;2023-09-19T01:13:01;7.05;;;3.40;;
18274;SDS011;19470;49.322;7.218;2023-09-19T01:15:37;5.88;;;3.60;;
18274;SDS011;19470;49.322;7.218;2023-09-19T01:18:13;5.68;;;3.47;;
18274;SDS011;19470;49.322;7.218;2023-09-19T01:20:50;11.07;;;3.70;;
18274;SDS011;19470;49.322;7.218;2023-09-19T01:23:26;6.70;;;3.50;;
18274;SDS011;19470;49.322;7.218;2023-09-19T01:29:04;7.60;;;3.55;;
18274;SDS011;19470;49.322;7.218;2023-09-19T01:31:46;6.20;;;3.40;;
18274;SDS011;19470;49.322;7.218;2023-09-19T01:34:15;11.07;;;3.55;;
18274;SDS011;19470;49.322;7.218;2023-09-19T01:36:43;5.25;;;2.85;;
18274;SDS011;19470;49.322;7.218;2023-09-19T01:39:10;9.20;;;3.42;;
18274;SDS011;19470;49.322;7.218;2023-09-19T01:41:41;9.05;;;3.75;;
18274;SDS011;19470;49.322;7.218;2023-09-19T01:44:17;8.60;;;4.00;;
18274;SDS011;19470;49.322;7.218;2023-09-19T01:46:53;4.30;;;3.38;;
18274;SDS011;19470;49.322;7.218;2023-09-19T01:49:33;5.80;;;3.40;;
18274;SDS011;19470;49.322;7.218;2023-09-19T01:52:11;7.70;;;3.83;;
18274;SDS011;19470;49.322;7.218;2023-09-19T01:54:41;8.27;;;3.75;;
18274;SDS011;19470;49.322;7.218;2023-09-19T01:57:15;5.95;;;3.45;;
18274;SDS011;19470;49.322;7.218;2023-09-19T01:59:50;6.70;;;3.40;;
18274;SDS011;19470;49.322;7.218;2023-09-19T02:02:22;8.82;;;3.35;;
18274;SDS011;19470;49.322;7.218;2023-09-19T02:04:51;13.10;;;3.42;;
18274;SDS011;19470;49.322;7.218;2023-09-19T02:07:17;7.10;;;3.28;;
18274;SDS011;19470;49.322;7.218;2023-09-19T02:09:44;11.02;;;4.38;;
18274;SDS011;19470;49.322;7.218;2023-09-19T02:12:13;9.32;;;4.00;;
18274;SDS011;19470;49.322;7.218;2023-09-19T02:14:40;8.20;;;3.05;;
18274;SDS011;19470;49.322;7.218;2023-09-19T02:17:07;7.40;;;3.40;;
18274;SDS011;19470;49.322;7.218;2023-09-19T02:19:37;7.40;;;3.55;;
18274;SDS011;19470;49.322;7.218;2023-09-19T02:22:06;11.10;;;3.53;;
18274;SDS011;19470;49.322;7.218;2023-09-19T02:24:35;6.88;;;3.30;;
18274;SDS011;19470;49.322;7.218;2023-09-19T02:27:02;10.80;;;3.30;;
18274;SDS011;19470;49.322;7.218;2023-09-19T02:29:32;6.57;;;3.17;;
18274;SDS011;19470;49.322;7.218;2023-09-19T02:31:59;4.75;;;3.40;;
18274;SDS011;19470;49.322;7.218;2023-09-19T02:34:27;7.38;;;3.45;;
18274;SDS011;19470;49.322;7.218;2023-09-19T02:36:55;6.95;;;3.30;;
18274;SDS011;19470;49.322;7.218;2023-09-19T02:39:22;10.93;;;3.50;;
18274;SDS011;19470;49.322;7.218;2023-09-19T02:41:49;7.60;;;3.13;;
18274;SDS011;19470;49.322;7.218;2023-09-19T02:44:16;7.70;;;3.63;;
18274;SDS011;19470;49.322;7.218;2023-09-19T02:46:45;5.72;;;3.10;;
18274;SDS011;19470;49.322;7.218;2023-09-19T02:49:11;13.35;;;3.28;;
18274;SDS011;19470;49.322;7.218;2023-09-19T02:51:38;5.43;;;3.28;;
18274;SDS011;19470;49.322;7.218;2023-09-19T02:54:07;7.22;;;3.65;;
18274;SDS011;19470;49.322;7.218;2023-09-19T02:56:34;6.82;;;3.92;;
18274;SDS011;19470;49.322;7.218;2023-09-19T02:59:06;6.68;;;3.72;;
18274;SDS011;19470;49.322;7.218;2023-09-19T03:01:35;9.05;;;4.35;;
18274;SDS011;19470;49.322;7.218;2023-09-19T03:04:03;9.02;;;4.15;;
18274;SDS011;19470;49.322;7.218;2023-09-19T03:06:31;10.05;;;3.83;;
18274;SDS011;19470;49.322;7.218;2023-09-19T03:08:58;8.55;;;3.80;;
18274;SDS011;19470;49.322;7.218;2023-09-19T03:11:26;8.25;;;4.05;;
18274;SDS011;19470;49.322;7.218;2023-09-19T03:13:53;9.10;;;3.40;;
18274;SDS011;19470;49.322;7.218;2023-09-19T03:16:20;8.60;;;3.30;;
18274;SDS011;19470;49.322;7.218;2023-09-19T03:18:47;6.70;;;3.65;;
18274;SDS011;19470;49.322;7.218;2023-09-19T03:21:14;6.80;;;3.95;;
18274;SDS011;19470;49.322;7.218;2023-09-19T03:23:42;9.65;;;3.83;;
18274;SDS011;19470;49.322;7.218;2023-09-19T03:26:10;4.82;;;3.10;;
18274;SDS011;19470;49.322;7.218;2023-09-19T03:28:38;11.93;;;3.90;;
18274;SDS011;19470;49.322;7.218;2023-09-19T03:31:06;7.50;;;3.42;;
18274;SDS011;19470;49.322;7.218;2023-09-19T03:33:33;6.18;;;3.35;;
18274;SDS011;19470;49.322;7.218;2023-09-19T03:35:59;7.05;;;3.72;;
18274;SDS011;19470;49.322;7.218;2023-09-19T03:38:29;9.32;;;3.95;;
18274;SDS011;19470;49.322;7.218;2023-09-19T03:40:56;7.53;;;4.00;;
18274;SDS011;19470;49.322;7.218;2023-09-19T03:43:39;7.00;;;3.72;;
18274;SDS011;19470;49.322;7.218;2023-09-19T03:46:06;9.77;;;3.72;;
18274;SDS011;19470;49.322;7.218;2023-09-19T03:48:33;9.63;;;3.63;;
18274;SDS011;19470;49.322;7.218;2023-09-19T03:50:59;11.60;;;3.70;;
18274;SDS011;19470;49.322;7.218;2023-09-19T03:53:26;9.70;;;3.88;;
18274;SDS011;19470;49.322;7.218;2023-09-19T03:55:52;9.98;;;3.92;;
18274;SDS011;19470;49.322;7.218;2023-09-19T03:58:19;11.20;;;3.97;;
18274;SDS011;19470;49.322;7.218;2023-09-19T04:00:47;8.73;;;4.35;;
18274;SDS011;19470;49.322;7.218;2023-09-19T04:03:14;10.68;;;4.00;;
18274;SDS011;19470;49.322;7.218;2023-09-19T04:05:45;9.60;;;4.30;;
18274;SDS011;19470;49.322;7.218;2023-09-19T04:08:12;15.70;;;4.07;;
18274;SDS011;19470;49.322;7.218;2023-09-19T04:10:41;7.18;;;3.60;;
18274;SDS011;19470;49.322;7.218;2023-09-19T04:13:08;11.02;;;4.03;;
18274;SDS011;19470;49.322;7.218;2023-09-19T04:15:34;8.60;;;3.65;;
18274;SDS011;19470;49.322;7.218;2023-09-19T04:18:02;9.35;;;3.70;;
18274;SDS011;19470;49.322;7.218;2023-09-19T04:20:29;12.52;;;3.38;;
18274;SDS011;19470;49.322;7.218;2023-09-19T04:22:57;6.25;;;3.05;;
18274;SDS011;19470;49.322;7.218;2023-09-19T04:25:24;11.88;;;3.75;;
18274;SDS011;19470;49.322;7.218;2023-09-19T04:27:51;11.70;;;3.17;;
18274;SDS011;19470;49.322;7.218;2023-09-19T04:30:18;11.48;;;4.03;;
18274;SDS011;19470;49.322;7.218;2023-09-19T04:32:46;8.75;;;3.83;;
18274;SDS011;19470;49.322;7.218;2023-09-19T04:35:17;5.43;;;3.30;;
18274;SDS011;19470;49.322;7.218;2023-09-19T04:37:43;9.88;;;3.72;;
18274;SDS011;19470;49.322;7.218;2023-09-19T04:40:10;6.63;;;3.53;;
18274;SDS011;19470;49.322;7.218;2023-09-19T04:42:38;10.43;;;3.80;;
18274;SDS011;19470;49.322;7.218;2023-09-19T04:45:06;9.20;;;4.43;;
18274;SDS011;19470;49.322;7.218;2023-09-19T04:47:34;9.23;;;3.53;;
18274;SDS011;19470;49.322;7.218;2023-09-19T04:50:01;10.13;;;3.63;;
18274;SDS011;19470;49.322;7.218;2023-09-19T04:52:31;7.78;;;3.63;;
18274;SDS011;19470;49.322;7.218;2023-09-19T04:54:58;8.15;;;3.72;;
18274;SDS011;19470;49.322;7.218;2023-09-19T04:57:25;10.88;;;3.63;;
18274;SDS011;19470;49.322;7.218;2023-09-19T04:59:51;8.13;;;2.95;;
18274;SDS011;19470;49.322;7.218;2023-09-19T05:02:19;7.03;;;3.00;;
18274;SDS011;19470;49.322;7.218;2023-09-19T05:04:45;7.53;;;3.10;;
18274;SDS011;19470;49.322;7.218;2023-09-19T05:07:12;6.63;;;2.90;;
18274;SDS011;19470;49.322;7.218;2023-09-19T05:09:40;6.63;;;2.53;;
18274;SDS011;19470;49.322;7.218;2023-09-19T05:12:07;8.38;;;3.03;;
18274;SDS011;19470;49.322;7.218;2023-09-19T05:14:35;10.77;;;3.53;;
18274;SDS011;19470;49.322;7.218;2023-09-19T05:17:02;6.47;;;3.20;;
18274;SDS011;19470;49.322;7.218;2023-09-19T05:19:29;5.75;;;3.05;;
18274;SDS011;19470;49.322;7.218;2023-09-19T05:21:55;8.43;;;3.38;;
18274;SDS011;19470;49.322;7.218;2023-09-19T05:24:22;12.60;;;3.38;;
18274;SDS011;19470;49.322;7.218;2023-09-19T05:26:52;11.68;;;3.05;;
18274;SDS011;19470;49.322;7.218;2023-09-19T05:29:20;9.70;;;3.42;;
18274;SDS011;19470;49.322;7.218;2023-09-19T05:31:47;7.25;;;3.00;;
18274;SDS011;19470;49.322;7.218;2023-09-19T05:34:14;11.30;;;3.10;;
18274;SDS011;19470;49.322;7.218;2023-09-19T05:36:41;10.57;;;3.55;;
18274;SDS011;19470;49.322;7.218;2023-09-19T05:39:08;8.02;;;3.13;;
18274;SDS011;19470;49.322;7.218;2023-09-19T05:41:35;7.60;;;3.03;;
18274;SDS011;19470;49.322;7.218;2023-09-19T05:44:06;8.45;;;2.80;;
18274;SDS011;19470;49.322;7.218;2023-09-19T05:46:33;4.88;;;2.72;;
18274;SDS011;19470;49.322;7.218;2023-09-19T05:48:59;9.77;;;2.80;;
18274;SDS011;19470;49.322;7.218;2023-09-19T05:51:26;6.13;;;3.33;;
18274;SDS011;19470;49.322;7.218;2023-09-19T05:53:53;6.88;;;3.25;;
18274;SDS011;19470;49.322;7.218;2023-09-19T05:56:20;7.13;;;2.75;;
18274;SDS011;19470;49.322;7.218;2023-09-19T05:58:47;6.45;;;2.83;;
18274;SDS011;19470;49.322;7.218;2023-09-19T06:01:16;11.18;;;3.60;;
18274;SDS011;19470;49.322;7.218;2023-09-19T06:03:42;7.40;;;2.88;;
18274;SDS011;19470;49.322;7.218;2023-09-19T06:06:09;6.57;;;3.03;;
18274;SDS011;19470;49.322;7.218;2023-09-19T06:08:35;9.30;;;3.28;;
18274;SDS011;19470;49.322;7.218;2023-09-19T06:11:02;12.90;;;2.97;;
18274;SDS011;19470;49.322;7.218;2023-09-19T06:13:30;9.27;;;2.72;;
18274;SDS011;19470;49.322;7.218;2023-09-19T06:15:58;8.95;;;2.90;;
18274;SDS011;19470;49.322;7.218;2023-09-19T06:18:29;31.52;;;15.07;;
18274;SDS011;19470;49.322;7.218;2023-09-19T06:20:58;4.03;;;2.45;;
18274;SDS011;19470;49.322;7.218;2023-09-19T06:23:25;9.48;;;3.95;;
18274;SDS011;19470;49.322;7.218;2023-09-19T06:25:54;6.00;;;3.13;;
18274;SDS011;19470;49.322;7.218;2023-09-19T06:28:20;11.73;;;2.83;;
18274;SDS011;19470;49.322;7.218;2023-09-19T06:30:49;6.88;;;2.63;;
18274;SDS011;19470;49.322;7.218;2023-09-19T06:33:16;8.02;;;2.47;;
18274;SDS011;19470;49.322;7.218;2023-09-19T06:35:46;7.47;;;2.88;;
18274;SDS011;19470;49.322;7.218;2023-09-19T06:38:13;12.25;;;3.30;;
18274;SDS011;19470;49.322;7.218;2023-09-19T06:40:40;7.43;;;3.53;;
18274;SDS011;19470;49.322;7.218;2023-09-19T06:43:09;7.35;;;2.45;;
18274;SDS011;19470;49.322;7.218;2023-09-19T06:45:36;6.60;;;2.42;;
18274;SDS011;19470;49.322;7.218;2023-09-19T06:48:03;7.60;;;2.53;;
18274;SDS011;19470;49.322;7.218;2023-09-19T06:50:30;5.65;;;2.38;;
18274;SDS011;19470;49.322;7.218;2023-09-19T06:52:59;6.45;;;2.65;;
18274;SDS011;19470;49.322;7.218;2023-09-19T06:55:27;9.52;;;2.58;;
18274;SDS011;19470;49.322;7.218;2023-09-19T06:57:56;9.30;;;2.30;;
18274;SDS011;19470;49.322;7.218;2023-09-19T07:00:23;8.27;;;2.40;;
18274;SDS011;19470;49.322;7.218;2023-09-19T07:02:57;6.70;;;2.22;;
18274;SDS011;19470;49.322;7.218;2023-09-19T07:05:26;5.20;;;2.15;;
18274;SDS011;19470;49.322;7.218;2023-09-19T07:07:54;11.65;;;2.55;;
18274;SDS011;19470;49.322;7.218;2023-09-19T07:10:22;6.25;;;2.28;;
18274;SDS011;19470;49.322;7.218;2023-09-19T07:12:54;7.18;;;2.25;;
18274;SDS011;19470;49.322;7.218;2023-09-19T07:15:22;10.02;;;2.75;;
18274;SDS011;19470;49.322;7.218;2023-09-19T07:17:50;9.23;;;4.22;;
18274;SDS011;19470;49.322;7.218;2023-09-19T07:20:17;12.65;;;4.22;;
18274;SDS011;19470;49.322;7.218;2023-09-19T07:22:44;12.57;;;2.47;;
18274;SDS011;19470;49.322;7.218;2023-09-19T07:25:11;6.72;;;2.17;;
18274;SDS011;19470;49.322;7.218;2023-09-19T07:27:40;9.43;;;2.33;;
18274;SDS011;19470;49.322;7.218;2023-09-19T07:30:07;10.00;;;2.28;;
18274;SDS011;19470;49.322;7.218;2023-09-19T07:32:34;12.55;;;2.58;;
18274;SDS011;19470;49.322;7.218;2023-09-19T07:35:01;10.38;;;2.20;;
18274;SDS011;19470;49.322;7.218;2023-09-19T07:37:28;6.63;;;2.10;;
18274;SDS011;19470;49.322;7.218;2023-09-19T07:39:56;8.45;;;2.10;;
18274;SDS011;19470;49.322;7.218;2023-09-19T07:42:22;8.07;;;1.77;;
18274;SDS011;19470;49.322;7.218;2023-09-19T07:44:50;9.80;;;2.83;;
18274;SDS011;19470;49.322;7.218;2023-09-19T07:47:18;6.38;;;2.08;;
18274;SDS011;19470;49.322;7.218;2023-09-19T07:49:46;10.07;;;2.67;;
18274;SDS011;19470;49.322;7.218;2023-09-19T07:52:12;8.38;;;1.92;;
18274;SDS011;19470;49.322;7.218;2023-09-19T07:54:40;6.32;;;1.83;;
18274;SDS011;19470;49.322;7.218;2023-09-19T07:57:09;6.50;;;2.08;;
18274;SDS011;19470;49.322;7.218;2023-09-19T07:59:35;9.18;;;1.75;;
18274;SDS011;19470;49.322;7.218;2023-09-19T08:02:04;6.85;;;1.75;;
18274;SDS011;19470;49.322;7.218;2023-09-19T08:04:33;10.98;;;2.17;;
18274;SDS011;19470;49.322;7.218;2023-09-19T08:07:00;9.48;;;2.08;;
18274;SDS011;19470;49.322;7.218;2023-09-19T08:09:29;11.98;;;2.10;;
18274;SDS011;19470;49.322;7.218;2023-09-19T08:11:58;7.38;;;1.98;;
18274;SDS011;19470;49.322;7.218;2023-09-19T08:14:27;8.43;;;2.15;;
18274;SDS011;19470;49.322;7.218;2023-09-19T08:16:55;3.67;;;1.80;;
18274;SDS011;19470;49.322;7.218;2023-09-19T08:19:24;11.65;;;3.60;;
18274;SDS011;19470;49.322;7.218;2023-09-19T08:21:54;9.88;;;2.13;;
18274;SDS011;19470;49.322;7.218;2023-09-19T08:24:23;9.02;;;2.10;;
18274;SDS011;19470;49.322;7.218;2023-09-19T08:26:50;12.73;;;3.58;;
18274;SDS011;19470;49.322;7.218;2023-09-19T08:29:16;11.27;;;2.58;;
18274;SDS011;19470;49.322;7.218;2023-09-19T08:31:43;8.45;;;3.03;;
18274;SDS011;19470;49.322;7.218;2023-09-19T08:34:10;11.43;;;2.40;;
18274;SDS011;19470;49.322;7.218;2023-09-19T08:36:37;7.90;;;1.55;;
18274;SDS011;19470;49.322;7.218;2023-09-19T08:39:06;8.90;;;2.47;;
18274;SDS011;19470;49.322;7.218;2023-09-19T08:41:33;9.02;;;4.70;;
18274;SDS011;19470;49.322;7.218;2023-09-19T08:44:00;10.65;;;3.33;;
18274;SDS011;19470;49.322;7.218;2023-09-19T08:46:28;88.47;;;81.60;;
18274;SDS011;19470;49.322;7.218;2023-09-19T08:48:57;11.07;;;2.47;;
18274;SDS011;19470;49.322;7.218;2023-09-19T08:51:30;7.25;;;2.22;;
18274;SDS011;19470;49.322;7.218;2023-09-19T08:54:07;77.50;;;70.93;;
18274;SDS011;19470;49.322;7.218;2023-09-19T08:56:35;7.68;;;2.40;;
18274;SDS011;19470;49.322;7.218;2023-09-19T08:59:04;7.70;;;2.33;;
18274;SDS011;19470;49.322;7.218;2023-09-19T09:01:33;19.08;;;15.05;;
18274;SDS011;19470;49.322;7.218;2023-09-19T09:04:01;9.70;;;3.83;;
18274;SDS011;19470;49.322;7.218;2023-09-19T09:06:28;141.45;;;129.77;;
18274;SDS011;19470;49.322;7.218;2023-09-19T09:08:57;5.28;;;2.72;;
18274;SDS011;19470;49.322;7.218;2023-09-19T09:11:26;9.13;;;4.10;;
18274;SDS011;19470;49.322;7.218;2023-09-19T09:13:53;8.82;;;4.38;;
18274;SDS011;19470;49.322;7.218;2023-09-19T09:16:19;10.48;;;3.85;;
18274;SDS011;19470;49.322;7.218;2023-09-19T09:18:46;9.27;;;6.43;;
18274;SDS011;19470;49.322;7.218;2023-09-19T09:21:17;17.35;;;15.82;;
18274;SDS011;19470;49.322;7.218;2023-09-19T09:23:46;7.63;;;2.50;;
18274;SDS011;19470;49.322;7.218;2023-09-19T09:26:13;10.35;;;6.40;;
18274;SDS011;19470;49.322;7.218;2023-09-19T09:28:45;141.65;;;130.00;;
18274;SDS011;19470;49.322;7.218;2023-09-19T09:31:24;250.45;;;232.68;;
18274;SDS011;19470;49.322;7.218;2023-09-19T09:33:54;12.13;;;5.22;;
18274;SDS011;19470;49.322;7.218;2023-09-19T09:36:33;24.70;;;20.77;;
18274;SDS011;19470;49.322;7.218;2023-09-19T09:39:01;52.92;;;49.22;;
18274;SDS011;19470;49.322;7.218;2023-09-19T09:41:41;117.68;;;111.22;;
18274;SDS011;19470;49.322;7.218;2023-09-19T09:44:13;244.07;;;230.13;;
18274;SDS011;19470;49.322;7.218;2023-09-19T09:46:42;256.80;;;243.63;;
18274;SDS011;19470;49.322;7.218;2023-09-19T09:49:47;248.07;;;235.25;;
18274;SDS011;19470;49.322;7.218;2023-09-19T09:52:19;351.38;;;332.55;;
18274;SDS011;19470;49.322;7.218;2023-09-19T09:54:58;319.95;;;303.05;;
18274;SDS011;19470;49.322;7.218;2023-09-19T09:57:25;283.20;;;268.48;;
18274;SDS011;19470;49.322;7.218;2023-09-19T09:59:54;262.42;;;249.07;;
18274;SDS011;19470;49.322;7.218;2023-09-19T10:02:25;351.52;;;332.67;;
18274;SDS011;19470;49.322;7.218;2023-09-19T10:04:54;277.20;;;263.42;;
18274;SDS011;19470;49.322;7.218;2023-09-19T10:07:39;391.73;;;370.45;;
18274;SDS011;19470;49.322;7.218;2023-09-19T10:10:07;283.65;;;268.83;;
18274;SDS011;19470;49.322;7.218;2023-09-19T10:12:45;250.30;;;237.45;;
18274;SDS011;19470;49.322;7.218;2023-09-19T10:15:15;335.65;;;316.08;;
18274;SDS011;19470;49.322;7.218;2023-09-19T10:17:45;407.85;;;383.33;;
18274;SDS011;19470;49.322;7.218;2023-09-19T10:20:13;252.60;;;239.60;;
18274;SDS011;19470;49.322;7.218;2023-09-19T10:23:00;355.55;;;337.20;;
18274;SDS011;19470;49.322;7.218;2023-09-19T10:25:34;281.70;;;267.15;;
18274;SDS011;19470;49.322;7.218;2023-09-19T10:28:03;326.42;;;309.27;;
18274;SDS011;19470;49.322;7.218;2023-09-19T10:30:37;364.63;;;345.05;;
18274;SDS011;19470;49.322;7.218;2023-09-19T10:33:10;296.92;;;282.05;;
18274;SDS011;19470;49.322;7.218;2023-09-19T10:35:38;440.02;;;415.63;;
18274;SDS011;19470;49.322;7.218;2023-09-19T10:38:10;405.48;;;382.13;;
18274;SDS011;19470;49.322;7.218;2023-09-19T10:40:37;345.50;;;327.52;;
18274;SDS011;19470;49.322;7.218;2023-09-19T10:43:11;369.70;;;350.40;;
18274;SDS011;19470;49.322;7.218;2023-09-19T10:45:41;281.67;;;267.20;;
18274;SDS011;19470;49.322;7.218;2023-09-19T10:48:10;296.35;;;281.13;;
18274;SDS011;19470;49.322;7.218;2023-09-19T10:50:41;226.45;;;215.20;;
18274;SDS011;19470;49.322;7.218;2023-09-19T10:53:11;57.22;;;54.20;;
18274;SDS011;19470;49.322;7.218;2023-09-19T10:55:40;86.88;;;82.40;;
18274;SDS011;19470;49.322;7.218;2023-09-19T10:58:13;186.23;;;173.63;;
18274;SDS011;19470;49.322;7.218;2023-09-19T11:00:55;56.85;;;53.63;;
18274;SDS011;19470;49.322;7.218;2023-09-19T11:03:26;65.15;;;61.75;;
18274;SDS011;19470;49.322;7.218;2023-09-19T11:06:05;170.63;;;160.15;;
18274;SDS011;19470;49.322;7.218;2023-09-19T11:08:50;101.18;;;95.75;;
18274;SDS011;19470;49.322;7.218;2023-09-19T11:25:51;82.50;;;78.00;;
18274;SDS011;19470;49.322;7.218;2023-09-19T11:28:31;60.17;;;56.95;;
18274;SDS011;19470;49.322;7.218;2023-09-19T11:40:36;64.32;;;60.85;;
18274;SDS011;19470;49.322;7.218;2023-09-19T11:46:04;393.80;;;372.73;;
18274;SDS011;19470;49.322;7.218;2023-09-19T11:48:45;405.27;;;384.17;;
18274;SDS011;19470;49.322;7.218;2023-09-19T11:51:15;391.35;;;370.77;;
18274;SDS011;19470;49.322;7.218;2023-09-19T11:53:48;404.25;;;382.70;;
18274;SDS011;19470;49.322;7.218;2023-09-19T11:56:18;439.35;;;415.00;;
18274;SDS011;19470;49.322;7.218;2023-09-19T11:58:47;476.25;;;445.85;;
18274;SDS011;19470;49.322;7.218;2023-09-19T12:01:20;497.17;;;467.38;;
18274;SDS011;19470;49.322;7.218;2023-09-19T12:03:52;401.70;;;379.13;;
18274;SDS011;19470;49.322;7.218;2023-09-19T12:06:25;286.50;;;270.33;;
18274;SDS011;19470;49.322;7.218;2023-09-19T12:08:53;266.48;;;252.68;;
18274;SDS011;19470;49.322;7.218;2023-09-19T12:11:23;150.85;;;143.07;;
18274;SDS011;19470;49.322;7.218;2023-09-19T12:13:53;229.95;;;212.65;;
18274;SDS011;19470;49.322;7.218;2023-09-19T12:16:23;273.98;;;259.98;;
18274;SDS011;19470;49.322;7.218;2023-09-19T12:18:51;323.55;;;304.90;;
18274;SDS011;19470;49.322;7.218;2023-09-19T12:21:22;451.63;;;423.85;;
18274;SDS011;19470;49.322;7.218;2023-09-19T12:23:57;220.45;;;208.98;;
18274;SDS011;19470;49.322;7.218;2023-09-19T12:26:27;198.50;;;188.85;;
18274;SDS011;19470;49.322;7.218;2023-09-19T12:28:54;298.50;;;283.52;;
18274;SDS011;19470;49.322;7.218;2023-09-19T12:31:22;404.67;;;382.58;;
18274;SDS011;19470;49.322;7.218;2023-09-19T12:33:53;373.63;;;353.58;;
18274;SDS011;19470;49.322;7.218;2023-09-19T12:36:20;451.58;;;424.60;;
18274;SDS011;19470;49.322;7.218;2023-09-19T12:38:50;387.00;;;364.73;;
18274;SDS011;19470;49.322;7.218;2023-09-19T12:41:18;353.25;;;335.08;;
18274;SDS011;19470;49.322;7.218;2023-09-19T12:43:47;331.00;;;313.95;;
18274;SDS011;19470;49.322;7.218;2023-09-19T12:46:14;426.00;;;401.48;;
18274;SDS011;19470;49.322;7.218;2023-09-19T12:48:44;350.73;;;332.63;;
18274;SDS011;19470;49.322;7.218;2023-09-19T12:51:13;436.60;;;410.17;;
18274;SDS011;19470;49.322;7.218;2023-09-19T12:53:41;780.70;;;697.40;;
18274;SDS011;19470;49.322;7.218;2023-09-19T12:56:10;429.45;;;404.27;;
18274;SDS011;19470;49.322;7.218;2023-09-19T12:58:49;301.73;;;286.60;;
18274;SDS011;19470;49.322;7.218;2023-09-19T13:01:19;438.58;;;414.88;;
18274;SDS011;19470;49.322;7.218;2023-09-19T13:06:40;303.48;;;288.15;;
18274;SDS011;19470;49.322;7.218;2023-09-19T13:09:09;341.35;;;323.52;;
18274;SDS011;19470;49.322;7.218;2023-09-19T13:11:36;438.13;;;413.35;;
18274;SDS011;19470;49.322;7.218;2023-09-19T13:14:19;288.38;;;273.75;;
18274;SDS011;19470;49.322;7.218;2023-09-19T13:16:55;243.50;;;231.55;;
18274;SDS011;19470;49.322;7.218;2023-09-19T13:19:39;316.10;;;299.73;;
18274;SDS011;19470;49.322;7.218;2023-09-19T13:25:04;497.30;;;464.52;;
18274;SDS011;19470;49.322;7.218;2023-09-19T13:27:33;302.45;;;284.67;;
18274;SDS011;19470;49.322;7.218;2023-09-19T13:30:01;206.07;;;195.80;;
18274;SDS011;19470;49.322;7.218;2023-09-19T13:32:27;183.32;;;174.07;;
18274;SDS011;19470;49.322;7.218;2023-09-19T13:34:54;266.63;;;249.45;;
18274;SDS011;19470;49.322;7.218;2023-09-19T13:37:20;88.38;;;83.68;;
18274;SDS011;19470;49.322;7.218;2023-09-19T13:39:47;64.07;;;60.42;;
18274;SDS011;19470;49.322;7.218;2023-09-19T13:42:13;145.93;;;138.55;;
18274;SDS011;19470;49.322;7.218;2023-09-19T13:44:41;338.95;;;321.02;;
18274;SDS011;19470;49.322;7.218;2023-09-19T13:47:09;193.00;;;183.43;;
18274;SDS011;19470;49.322;7.218;2023-09-19T13:49:38;232.07;;;220.65;;
18274;SDS011;19470;49.322;7.218;2023-09-19T13:52:05;541.58;;;502.27;;
18274;SDS011;19470;49.322;7.218;2023-09-19T13:54:32;270.83;;;254.57;;
18274;SDS011;19470;49.322;7.218;2023-09-19T13:56:59;166.43;;;157.95;;
18274;SDS011;19470;49.322;7.218;2023-09-19T13:59:26;537.80;;;492.75;;
18274;SDS011;19470;49.322;7.218;2023-09-19T14:01:53;250.98;;;233.27;;
18274;SDS011;19470;49.322;7.218;2023-09-19T14:04:21;435.27;;;400.20;;
18274;SDS011;19470;49.322;7.218;2023-09-19T14:06:48;40.42;;;38.38;;
18274;SDS011;19470;49.322;7.218;2023-09-19T14:09:14;112.45;;;106.28;;
18274;SDS011;19470;49.322;7.218;2023-09-19T14:11:41;57.47;;;54.47;;
18274;SDS011;19470;49.322;7.218;2023-09-19T14:14:11;152.82;;;145.13;;
18274;SDS011;19470;49.322;7.218;2023-09-19T14:16:37;73.85;;;70.05;;
18274;SDS011;19470;49.322;7.218;2023-09-19T14:19:05;241.80;;;227.32;;
18274;SDS011;19470;49.322;7.218;2023-09-19T14:21:34;193.70;;;181.43;;
18274;SDS011;19470;49.322;7.218;2023-09-19T14:24:04;115.00;;;109.00;;
18274;SDS011;19470;49.322;7.218;2023-09-19T14:26:34;414.67;;;377.90;;
18274;SDS011;19470;49.322;7.218;2023-09-19T14:29:00;373.40;;;346.58;;
18274;SDS011;19470;49.322;7.218;2023-09-19T14:31:27;55.30;;;52.28;;
18274;SDS011;19470;49.322;7.218;2023-09-19T14:33:54;42.38;;;39.78;;
18274;SDS011;19470;49.322;7.218;2023-09-19T14:36:22;54.90;;;51.95;;
18274;SDS011;19470;49.322;7.218;2023-09-19T14:38:51;264.38;;;246.77;;
18274;SDS011;19470;49.322;7.218;2023-09-19T14:41:19;582.60;;;540.08;;
18274;SDS011;19470;49.322;7.218;2023-09-19T14:43:46;183.43;;;174.10;;
18274;SDS011;19470;49.322;7.218;2023-09-19T14:46:12;354.10;;;332.58;;
18274;SDS011;19470;49.322;7.218;2023-09-19T14:48:39;130.80;;;124.22;;
18274;SDS011;19470;49.322;7.218;2023-09-19T14:51:06;126.05;;;119.88;;
18274;SDS011;19470;49.322;7.218;2023-09-19T14:53:33;141.90;;;135.02;;
18274;SDS011;19470;49.322;7.218;2023-09-19T14:56:02;160.68;;;152.63;;
18274;SDS011;19470;49.322;7.218;2023-09-19T14:58:29;203.77;;;193.07;;
18274;SDS011;19470;49.322;7.218;2023-09-19T15:01:01;117.22;;;111.53;;
18274;SDS011;19470;49.322;7.218;2023-09-19T15:03:29;273.38;;;255.05;;
18274;SDS011;19470;49.322;7.218;2023-09-19T15:05:58;105.13;;;99.80;;
18274;SDS011;19470;49.322;7.218;2023-09-19T15:08:25;174.95;;;165.68;;
18274;SDS011;19470;49.322;7.218;2023-09-19T15:10:52;159.38;;;151.32;;
18274;SDS011;19470;49.322;7.218;2023-09-19T15:13:19;163.82;;;155.50;;
18274;SDS011;19470;49.322;7.218;2023-09-19T15:15:46;104.82;;;99.70;;